createdAt,value
2018-08-07T00:01:48.233Z,13.00
2018-08-07T00:04:16.296Z,13.98
2018-08-07T00:06:44.368Z,9.58
2018-08-07T00:09:12.780Z,11.48
2018-08-07T00:11:40.845Z,16.00
2018-08-07T00:14:09.060Z,12.73
2018-08-07T00:16:37.287Z,10.90
2018-08-07T00:19:05.381Z,12.45
2018-08-07T00:21:33.456Z,11.95
2018-08-07T00:24:01.508Z,13.28
2018-08-07T00:26:29.673Z,10.20
2018-08-07T00:28:57.752Z,12.28
2018-08-07T00:31:25.804Z,10.78
2018-08-07T00:33:53.876Z,13.18
2018-08-07T00:36:21.936Z,12.90
2018-08-07T00:38:50.001Z,11.45
2018-08-07T00:41:18.057Z,12.68
2018-08-07T00:43:46.137Z,12.07
2018-08-07T00:46:14.193Z,15.48
2018-08-07T00:48:42.260Z,14.50
2018-08-07T00:51:10.325Z,18.07
2018-08-07T00:53:38.392Z,14.03
2018-08-07T00:56:06.457Z,13.45
2018-08-07T00:58:34.524Z,16.30
2018-08-07T01:01:02.582Z,17.12
2018-08-07T01:03:30.652Z,15.93
2018-08-07T01:05:58.732Z,16.75
2018-08-07T01:08:26.844Z,12.20
2018-08-07T01:10:54.888Z,14.38
2018-08-07T01:13:22.940Z,13.32
2018-08-07T01:15:50.990Z,13.65
2018-08-07T01:18:19.032Z,12.75
2018-08-07T01:20:47.072Z,17.60
2018-08-07T01:23:15.122Z,13.03
2018-08-07T01:25:43.168Z,12.28
2018-08-07T01:28:11.212Z,12.75
2018-08-07T01:30:39.250Z,14.85
2018-08-07T01:33:07.300Z,19.07
2018-08-07T01:35:35.336Z,15.60
2018-08-07T01:38:03.388Z,13.45
2018-08-07T01:40:31.440Z,12.55
2018-08-07T01:42:59.492Z,17.87
2018-08-07T01:45:27.536Z,11.97
2018-08-07T01:47:55.575Z,10.38
2018-08-07T01:50:23.635Z,12.35
2018-08-07T01:52:51.684Z,15.45
2018-08-07T01:55:22.173Z,12.98
2018-08-07T01:57:50.213Z,15.25
2018-08-07T02:00:18.284Z,13.60
2018-08-07T02:02:46.373Z,14.63
2018-08-07T02:05:14.430Z,21.40
2018-08-07T02:07:43.024Z,15.55
2018-08-07T02:10:14.664Z,13.35
2018-08-07T02:12:42.792Z,16.05
2018-08-07T02:15:11.659Z,12.88
2018-08-07T02:17:39.724Z,15.23
2018-08-07T02:20:14.072Z,15.65
2018-08-07T02:22:42.781Z,14.68
2018-08-07T02:25:12.604Z,18.30
2018-08-07T02:27:40.668Z,19.05
2018-08-07T02:30:10.738Z,18.85
2018-08-07T02:32:39.112Z,12.63
2018-08-07T02:35:08.243Z,24.45
2018-08-07T02:37:36.311Z,13.22
2018-08-07T02:40:05.664Z,14.20
2018-08-07T02:42:33.737Z,14.75
2018-08-07T02:45:01.810Z,16.80
2018-08-07T02:47:29.863Z,12.80
2018-08-07T02:49:57.937Z,16.30
2018-08-07T02:52:26.002Z,15.60
2018-08-07T02:54:54.067Z,16.10
2018-08-07T02:57:22.130Z,12.90
2018-08-07T02:59:50.198Z,16.02
2018-08-07T03:02:18.264Z,15.90
2018-08-07T03:04:46.320Z,14.85
2018-08-07T03:07:14.372Z,18.67
2018-08-07T03:09:42.425Z,15.70
2018-08-07T03:12:10.474Z,15.48
2018-08-07T03:14:38.540Z,15.75
2018-08-07T03:17:06.620Z,16.32
2018-08-07T03:19:34.635Z,18.20
2018-08-07T03:22:02.809Z,19.77
2018-08-07T03:24:30.860Z,17.17
2018-08-07T03:26:58.900Z,19.20
2018-08-07T03:29:26.956Z,16.00
2018-08-07T03:31:55.003Z,16.17
2018-08-07T03:34:23.052Z,16.70
2018-08-07T03:36:51.090Z,17.20
2018-08-07T03:39:19.144Z,17.27
2018-08-07T03:41:47.197Z,15.35
2018-08-07T03:44:15.248Z,16.40
2018-08-07T03:46:43.293Z,14.68
2018-08-07T03:49:11.364Z,19.07
2018-08-07T03:51:39.384Z,22.35
2018-08-07T03:54:07.445Z,18.90
2018-08-07T03:56:35.493Z,18.95
2018-08-07T03:59:03.620Z,15.03
2018-08-07T04:01:31.620Z,16.95
2018-08-07T04:03:59.681Z,30.55
2018-08-07T04:06:27.732Z,18.57
2018-08-07T04:08:55.808Z,21.77
2018-08-07T04:11:23.936Z,18.70
2018-08-07T04:13:51.958Z,16.20
2018-08-07T04:16:20.013Z,17.65
2018-08-07T04:18:48.076Z,15.38
2018-08-07T04:21:16.153Z,17.98
2018-08-07T04:23:44.601Z,16.17
2018-08-07T04:26:12.708Z,15.13
2018-08-07T04:28:40.712Z,23.25
2018-08-07T04:31:08.781Z,14.65
2018-08-07T04:33:36.840Z,16.45
2018-08-07T04:36:04.909Z,18.17
2018-08-07T04:38:32.977Z,25.15
2018-08-07T04:41:01.043Z,17.48
2018-08-07T04:43:29.144Z,16.75
2018-08-07T04:45:57.278Z,14.95
2018-08-07T04:48:25.284Z,16.70
2018-08-07T04:50:53.356Z,17.80
2018-08-07T04:53:21.419Z,21.05
2018-08-07T04:55:49.504Z,17.35
2018-08-07T04:58:17.565Z,15.60
2018-08-07T05:00:45.636Z,15.25
2018-08-07T05:03:13.704Z,30.00
2018-08-07T05:05:41.776Z,16.70
2018-08-07T05:08:09.843Z,15.23
2018-08-07T05:10:37.981Z,18.30
2018-08-07T05:13:05.984Z,19.87
2018-08-07T05:15:34.052Z,17.07
2018-08-07T05:18:02.100Z,17.27
2018-08-07T05:20:30.167Z,20.02
2018-08-07T05:22:58.229Z,15.38
2018-08-07T05:25:26.292Z,20.50
2018-08-07T05:27:54.356Z,18.27
2018-08-07T05:30:22.428Z,15.35
2018-08-07T05:32:50.492Z,18.92
2018-08-07T05:35:18.564Z,19.73
2018-08-07T05:37:46.628Z,18.17
2018-08-07T05:40:14.694Z,16.70
2018-08-07T05:42:42.813Z,18.62
2018-08-07T05:45:12.845Z,15.43
2018-08-07T05:47:40.910Z,16.82
2018-08-07T05:50:12.428Z,15.90
2018-08-07T05:52:40.404Z,16.75
2018-08-07T05:55:08.748Z,17.77
2018-08-07T05:57:36.801Z,17.48
2018-08-07T06:00:09.036Z,15.98
2018-08-07T06:02:37.101Z,14.60
2018-08-07T06:05:05.816Z,16.52
2018-08-07T06:07:33.868Z,16.82
2018-08-07T06:10:01.913Z,15.53
2018-08-07T06:12:29.956Z,16.50
2018-08-07T06:14:58.008Z,19.25
2018-08-07T06:17:26.054Z,20.08
2018-08-07T06:19:54.096Z,22.32
2018-08-07T06:22:22.141Z,16.52
2018-08-07T06:24:50.192Z,17.32
2018-08-07T06:27:18.240Z,18.32
2018-08-07T06:29:46.293Z,22.07
2018-08-07T06:32:14.379Z,18.32
2018-08-07T06:34:42.424Z,15.88
2018-08-07T06:37:10.283Z,14.35
2018-08-07T06:39:38.320Z,9.67
2018-08-07T06:42:06.384Z,10.55
2018-08-07T06:44:34.429Z,9.30
2018-08-07T06:47:02.492Z,12.17
2018-08-07T06:49:30.536Z,13.10
2018-08-07T06:51:58.596Z,8.40
2018-08-07T06:54:26.644Z,7.67
2018-08-07T06:56:54.802Z,9.50
2018-08-07T06:59:22.843Z,9.57
2018-08-07T07:01:50.887Z,9.47
2018-08-07T07:04:18.969Z,7.20
2018-08-07T07:06:47.040Z,11.80
2018-08-07T07:09:15.104Z,10.10
2018-08-07T07:11:43.168Z,8.97
2018-08-07T07:14:11.228Z,7.53
2018-08-07T07:16:39.299Z,14.00
2018-08-07T07:19:07.356Z,6.97
2018-08-07T07:21:35.427Z,7.40
2018-08-07T07:24:03.490Z,6.90
2018-08-07T07:26:31.558Z,9.60
2018-08-07T07:28:59.600Z,9.93
2018-08-07T07:31:27.667Z,8.63
2018-08-07T07:33:55.728Z,7.27
2018-08-07T07:36:23.788Z,9.10
2018-08-07T07:38:51.854Z,6.50
2018-08-07T07:41:19.927Z,7.73
2018-08-07T07:43:47.983Z,7.30
2018-08-07T07:46:16.077Z,7.70
2018-08-07T07:48:44.132Z,7.23
2018-08-07T07:51:12.193Z,8.87
2018-08-07T07:53:40.244Z,9.50
2018-08-07T07:56:08.312Z,9.90
2018-08-07T07:58:36.374Z,15.10
2018-08-07T08:01:04.440Z,8.60
2018-08-07T08:03:32.533Z,8.07
2018-08-07T08:06:00.671Z,7.30
2018-08-07T08:08:28.670Z,8.00
2018-08-07T08:10:56.716Z,8.67
2018-08-07T08:13:24.784Z,10.87
2018-08-07T08:15:52.860Z,6.00
2018-08-07T08:18:20.936Z,9.27
2018-08-07T08:20:49.039Z,7.07
2018-08-07T08:23:17.159Z,5.93
2018-08-07T08:25:45.271Z,6.33
2018-08-07T08:28:13.340Z,5.77
2018-08-07T08:30:41.413Z,7.80
2018-08-07T08:33:09.484Z,5.33
2018-08-07T08:35:37.602Z,6.27
2018-08-07T08:38:05.905Z,8.13
2018-08-07T08:40:33.968Z,5.97
2018-08-07T08:43:02.031Z,10.80
2018-08-07T08:45:30.094Z,10.17
2018-08-07T08:47:59.296Z,6.27
2018-08-07T08:50:27.801Z,7.67
2018-08-07T08:52:55.868Z,8.80
2018-08-07T08:55:23.928Z,7.50
2018-08-07T08:57:52.004Z,10.00
2018-08-07T09:00:23.336Z,9.00
2018-08-07T09:02:51.724Z,6.10
2018-08-07T09:05:19.787Z,8.17
2018-08-07T09:07:47.864Z,8.83
2018-08-07T09:10:19.421Z,8.43
2018-08-07T09:12:47.773Z,6.03
2018-08-07T09:15:15.972Z,6.87
2018-08-07T09:17:44.040Z,7.20
2018-08-07T09:20:15.832Z,7.17
2018-08-07T09:22:44.136Z,6.07
2018-08-07T09:25:12.458Z,6.10
2018-08-07T09:27:41.125Z,12.00
2018-08-07T09:30:11.500Z,7.20
2018-08-07T09:32:39.744Z,6.27
2018-08-07T09:35:07.844Z,10.63
2018-08-07T09:37:36.232Z,6.93
2018-08-07T09:40:06.126Z,7.27
2018-08-07T09:42:34.149Z,6.50
2018-08-07T09:45:02.233Z,7.50
2018-08-07T09:47:30.280Z,9.33
2018-08-07T09:49:58.395Z,7.90
2018-08-07T09:52:26.482Z,7.87
2018-08-07T09:54:54.523Z,6.13
2018-08-07T09:57:22.737Z,6.93
2018-08-07T09:59:50.807Z,13.13
2018-08-07T10:02:23.892Z,9.07
2018-08-07T10:04:51.981Z,13.60
2018-08-07T10:07:20.216Z,7.20
2018-08-07T10:09:48.293Z,6.30
2018-08-07T10:12:16.352Z,9.97
2018-08-07T10:14:44.569Z,8.13
2018-08-07T10:17:12.624Z,7.57
2018-08-07T10:19:40.732Z,6.10
2018-08-07T10:22:08.796Z,10.80
2018-08-07T10:24:36.872Z,7.53
2018-08-07T10:27:04.941Z,11.43
2018-08-07T10:29:33.009Z,7.20
2018-08-07T10:32:01.078Z,10.80
2018-08-07T10:34:29.145Z,9.03
2018-08-07T10:36:57.296Z,7.90
2018-08-07T10:39:25.147Z,8.67
2018-08-07T10:41:53.228Z,7.33
2018-08-07T10:44:21.299Z,9.43
2018-08-07T10:46:49.388Z,8.43
2018-08-07T10:49:17.456Z,7.37
2018-08-07T10:51:45.541Z,7.17
2018-08-07T10:54:13.611Z,11.40
2018-08-07T10:56:41.689Z,8.70
2018-08-07T10:59:09.749Z,6.20
2018-08-07T11:01:37.811Z,8.50
2018-08-07T11:04:06.024Z,8.87
2018-08-07T11:06:34.054Z,9.03
2018-08-07T11:09:02.152Z,7.07
2018-08-07T11:11:30.189Z,7.27
2018-08-07T11:13:58.287Z,6.73
2018-08-07T11:16:26.329Z,6.23
2018-08-07T11:18:54.381Z,6.83
2018-08-07T11:21:22.412Z,6.40
2018-08-07T11:23:50.456Z,8.03
2018-08-07T11:26:18.496Z,7.50
2018-08-07T11:28:46.556Z,8.23
2018-08-07T11:31:14.600Z,12.20
2018-08-07T11:33:42.652Z,19.63
2018-08-07T11:36:10.699Z,6.63
2018-08-07T11:38:38.744Z,7.70
2018-08-07T11:41:06.796Z,11.57
2018-08-07T11:44:12.485Z,8.50
2018-08-07T11:46:40.528Z,10.43
2018-08-07T11:49:08.584Z,8.77
2018-08-07T11:51:36.628Z,8.03
2018-08-07T11:54:04.680Z,8.10
2018-08-07T11:56:32.720Z,9.40
2018-08-07T11:59:00.770Z,6.53
2018-08-07T12:01:28.815Z,9.13
2018-08-07T12:03:56.869Z,9.73
2018-08-07T12:06:24.909Z,8.20
2018-08-07T12:08:52.979Z,7.13
2018-08-07T12:11:21.044Z,7.50
2018-08-07T12:13:49.104Z,7.23
2018-08-07T12:16:17.185Z,7.20
2018-08-07T12:18:45.248Z,8.03
2018-08-07T12:21:13.312Z,8.67
2018-08-07T12:23:41.379Z,6.73
2018-08-07T12:26:09.444Z,10.17
2018-08-07T12:28:37.507Z,12.47
2018-08-07T12:31:05.604Z,7.10
2018-08-07T12:33:33.684Z,10.13
2018-08-07T12:36:01.752Z,8.30
2018-08-07T12:38:29.819Z,7.37
2018-08-07T12:40:57.877Z,8.40
2018-08-07T12:43:25.956Z,8.93
2018-08-07T12:45:54.042Z,9.50
2018-08-07T12:48:22.093Z,8.63
2018-08-07T12:50:50.166Z,7.60
2018-08-07T12:53:18.341Z,8.40
2018-08-07T12:55:46.337Z,10.43
2018-08-07T12:58:14.432Z,10.33
2018-08-07T13:00:42.508Z,9.67
2018-08-07T13:03:10.568Z,13.80
2018-08-07T13:05:38.648Z,7.30
2018-08-07T13:08:06.709Z,8.03
2018-08-07T13:10:34.752Z,10.50
2018-08-07T13:13:02.797Z,8.67
2018-08-07T13:15:30.851Z,10.60
2018-08-07T13:17:58.896Z,10.87
2018-08-07T13:20:26.955Z,9.30
2018-08-07T13:22:54.992Z,8.57
2018-08-07T13:25:23.456Z,9.53
2018-08-07T13:27:51.509Z,8.53
2018-08-07T13:30:21.976Z,8.77
2018-08-07T13:32:50.027Z,9.20
2018-08-07T13:35:18.453Z,9.70
2018-08-07T13:37:47.872Z,10.70
2018-08-07T13:40:18.312Z,11.40
2018-08-07T13:42:46.378Z,15.67
2018-08-07T13:45:16.428Z,9.10
2018-08-07T13:47:44.603Z,16.80
2018-08-07T13:50:17.876Z,9.07
2018-08-07T13:52:46.611Z,10.20
2018-08-07T13:55:15.939Z,12.00
2018-08-07T13:57:44.318Z,12.70
2018-08-07T14:00:16.076Z,9.73
2018-08-07T14:02:44.687Z,10.43
2018-08-07T14:05:12.881Z,9.70
2018-08-07T14:07:40.949Z,10.03
2018-08-07T14:10:10.385Z,9.60
2018-08-07T14:12:38.473Z,17.83
2018-08-07T14:15:07.210Z,17.57
2018-08-07T14:17:35.265Z,9.07
2018-08-07T14:20:04.206Z,7.70
2018-08-07T14:22:32.272Z,9.27
2018-08-07T14:25:00.323Z,8.87
2018-08-07T14:27:28.389Z,8.10
2018-08-07T14:29:56.445Z,9.83
2018-08-07T14:32:24.540Z,12.20
2018-08-07T14:34:52.584Z,11.77
2018-08-07T14:37:20.633Z,11.17
2018-08-07T14:39:48.677Z,9.47
2018-08-07T14:42:16.854Z,9.80
2018-08-07T14:44:44.778Z,9.93
2018-08-07T14:47:12.825Z,12.40
2018-08-07T14:49:40.863Z,13.57
2018-08-07T14:52:09.043Z,12.53
2018-08-07T14:54:37.116Z,15.20
2018-08-07T14:57:05.156Z,9.97
2018-08-07T14:59:33.208Z,13.07
2018-08-07T15:02:01.264Z,16.87
2018-08-07T15:04:29.296Z,10.60
2018-08-07T15:06:57.362Z,11.33
2018-08-07T15:09:25.400Z,13.13
2018-08-07T15:11:53.480Z,12.80
2018-08-07T15:14:21.528Z,14.33
2018-08-07T15:16:49.632Z,10.10
2018-08-07T15:19:17.724Z,12.47
2018-08-07T15:21:45.832Z,12.33
2018-08-07T15:24:13.860Z,12.90
2018-08-07T15:26:41.924Z,12.13
2018-08-07T15:29:09.972Z,8.97
2018-08-07T15:31:38.092Z,11.93
2018-08-07T15:34:06.149Z,5.30
2018-08-07T15:36:34.212Z,9.33
2018-08-07T15:39:02.244Z,9.57
2018-08-07T15:41:30.284Z,6.13
2018-08-07T15:43:58.351Z,12.30
2018-08-07T15:46:26.388Z,13.77
2018-08-07T15:48:54.500Z,8.20
2018-08-07T15:51:22.552Z,10.77
2018-08-07T15:53:50.612Z,7.97
2018-08-07T15:56:18.672Z,10.20
2018-08-07T15:58:46.760Z,11.83
2018-08-07T16:01:14.821Z,12.03
2018-08-07T16:03:42.923Z,8.50
2018-08-07T16:06:10.993Z,8.27
2018-08-07T16:08:39.093Z,8.60
2018-08-07T16:11:07.164Z,8.90
2018-08-07T16:13:35.209Z,7.67
2018-08-07T16:18:37.903Z,7.83
2018-08-07T16:21:05.983Z,10.33
2018-08-07T16:23:34.001Z,10.70
2018-08-07T16:26:02.092Z,13.50
2018-08-07T16:28:30.140Z,8.63
2018-08-07T16:30:58.200Z,7.30
2018-08-07T16:33:26.241Z,12.93
2018-08-07T16:35:54.311Z,9.77
2018-08-07T16:38:22.404Z,8.17
2018-08-07T16:40:50.452Z,8.30
2018-08-07T16:43:18.536Z,9.53
2018-08-07T16:45:46.588Z,12.63
2018-08-07T16:48:14.657Z,7.70
2018-08-07T16:50:42.704Z,8.13
2018-08-07T16:53:10.811Z,11.53
2018-08-07T16:55:38.804Z,8.43
2018-08-07T16:58:06.885Z,5.90
2018-08-07T17:00:34.911Z,6.80
2018-08-07T17:03:02.980Z,7.43
2018-08-07T17:05:31.027Z,7.67
2018-08-07T17:07:59.132Z,6.73
2018-08-07T17:10:28.240Z,5.70
2018-08-07T17:12:56.301Z,6.00
2018-08-07T17:15:24.401Z,5.90
2018-08-07T17:17:52.528Z,11.70
2018-08-07T17:20:21.704Z,5.17
2018-08-07T17:22:50.316Z,5.97
2018-08-07T17:25:19.632Z,6.47
2018-08-07T17:27:48.369Z,4.60
2018-08-07T17:30:18.147Z,5.87
2018-08-07T17:32:46.548Z,7.00
2018-08-07T17:35:17.804Z,8.20
2018-08-07T17:37:46.259Z,8.40
2018-08-07T17:40:15.453Z,7.00
2018-08-07T17:42:43.540Z,5.07
2018-08-07T17:45:12.303Z,8.93
2018-08-07T17:47:40.353Z,5.67
2018-08-07T17:50:11.588Z,5.90
2018-08-07T17:52:39.876Z,5.90
2018-08-07T17:55:08.636Z,6.93
2018-08-07T17:57:36.998Z,7.20
2018-08-07T18:00:12.222Z,8.90
2018-08-07T18:02:40.316Z,8.70
2018-08-07T18:05:09.462Z,6.60
2018-08-07T18:07:37.577Z,6.60
2018-08-07T18:10:07.043Z,10.03
2018-08-07T18:12:35.133Z,6.60
2018-08-07T18:15:03.261Z,10.03
2018-08-07T18:17:31.328Z,6.93
2018-08-07T18:19:59.361Z,7.50
2018-08-07T18:22:27.427Z,12.13
2018-08-07T18:24:55.461Z,8.67
2018-08-07T18:27:23.564Z,8.30
2018-08-07T18:29:51.617Z,8.00
2018-08-07T18:32:19.688Z,8.60
2018-08-07T18:34:47.908Z,11.20
2018-08-07T18:37:15.967Z,9.53
2018-08-07T18:39:44.035Z,7.47
2018-08-07T18:42:12.129Z,7.60
2018-08-07T18:44:40.204Z,8.13
2018-08-07T18:47:08.213Z,8.97
2018-08-07T18:49:36.257Z,9.20
2018-08-07T18:52:04.321Z,10.73
2018-08-07T18:54:32.344Z,6.90
2018-08-07T18:57:00.400Z,7.90
2018-08-07T18:59:28.451Z,8.23
2018-08-07T19:01:56.509Z,7.37
2018-08-07T19:04:24.572Z,9.75
2018-08-07T19:06:52.700Z,7.37
2018-08-07T19:09:20.835Z,8.93
2018-08-07T19:11:48.832Z,10.93
2018-08-07T19:14:16.907Z,13.23
2018-08-07T19:16:44.952Z,11.57
2018-08-07T19:19:13.018Z,9.30
2018-08-07T19:21:41.080Z,13.85
2018-08-07T19:24:09.179Z,9.50
2018-08-07T19:26:37.220Z,28.57
2018-08-07T19:29:05.456Z,21.23
2018-08-07T19:31:33.536Z,8.10
2018-08-07T19:34:01.601Z,10.05
2018-08-07T19:36:29.688Z,8.55
2018-08-07T19:38:57.728Z,9.43
2018-08-07T19:41:25.832Z,11.77
2018-08-07T19:43:53.895Z,7.37
2018-08-07T19:46:21.944Z,8.63
2018-08-07T19:48:50.005Z,6.20
2018-08-07T19:51:18.052Z,8.18
2018-08-07T19:53:46.196Z,6.17
2018-08-07T19:56:14.238Z,7.45
2018-08-07T19:58:42.296Z,5.12
2018-08-07T20:01:10.343Z,11.15
2018-08-07T20:03:38.450Z,9.03
2018-08-07T20:06:06.496Z,8.45
2018-08-07T20:08:34.608Z,8.60
2018-08-07T20:11:02.683Z,5.92
2018-08-07T20:13:30.805Z,6.35
2018-08-07T20:15:58.921Z,6.87
2018-08-07T20:18:26.992Z,5.05
2018-08-07T20:20:55.091Z,6.90
2018-08-07T20:23:23.172Z,7.62
2018-08-07T20:25:51.364Z,9.33
2018-08-07T20:28:19.428Z,6.30
2018-08-07T20:30:47.588Z,6.28
2018-08-07T20:33:15.631Z,5.65
2018-08-07T20:35:50.356Z,8.70
2018-08-07T20:38:18.440Z,6.90
2018-08-07T20:40:46.503Z,5.40
2018-08-07T20:43:14.575Z,6.10
2018-08-07T20:45:43.005Z,10.43
2018-08-07T20:48:11.075Z,6.45
2018-08-07T20:50:39.317Z,8.60
2018-08-07T20:53:07.413Z,10.98
2018-08-07T20:55:35.554Z,7.62
2018-08-07T20:58:03.636Z,6.83
2018-08-07T21:00:31.716Z,9.15
2018-08-07T21:02:59.779Z,12.33
2018-08-07T21:05:27.840Z,8.60
2018-08-07T21:07:55.952Z,6.62
2018-08-07T21:10:25.237Z,7.33
2018-08-07T21:12:53.465Z,10.05
2018-08-07T21:15:21.524Z,6.55
2018-08-07T21:17:49.713Z,5.15
2018-08-07T21:20:19.214Z,6.05
2018-08-07T21:22:48.760Z,7.70
2018-08-07T21:25:18.361Z,6.33
2018-08-07T21:27:47.567Z,5.75
2018-08-07T21:30:31.628Z,10.55
2018-08-07T21:32:59.714Z,8.38
2018-08-07T21:35:27.776Z,5.70
2018-08-07T21:37:55.845Z,10.68
2018-08-07T21:40:24.589Z,6.45
2018-08-07T21:42:53.895Z,9.48
2018-08-07T21:45:21.969Z,5.42
2018-08-07T21:47:50.164Z,5.60
2018-08-07T21:50:19.793Z,5.47
2018-08-07T21:52:48.076Z,6.55
2018-08-07T21:55:17.217Z,12.93
2018-08-07T21:57:45.300Z,8.75
2018-08-07T22:00:15.932Z,9.53
2018-08-07T22:02:44.143Z,6.78
2018-08-07T22:05:12.389Z,6.05
2018-08-07T22:07:40.680Z,6.80
2018-08-07T22:10:16.149Z,7.53
2018-08-07T22:12:44.424Z,8.33
2018-08-07T22:15:13.437Z,6.22
2018-08-07T22:17:41.493Z,5.15
2018-08-07T22:20:10.628Z,7.12
2018-08-07T22:22:38.692Z,6.37
2018-08-07T22:25:07.873Z,5.60
2018-08-07T22:27:35.923Z,10.03
2018-08-07T22:30:06.196Z,15.15
2018-08-07T22:32:34.252Z,13.98
2018-08-07T22:35:02.327Z,11.20
2018-08-07T22:37:30.380Z,7.58
2018-08-07T22:39:58.444Z,8.35
2018-08-07T22:42:26.503Z,5.80
2018-08-07T22:44:54.572Z,5.50
2018-08-07T22:47:22.645Z,9.18
2018-08-07T22:49:50.708Z,7.08
2018-08-07T22:52:18.776Z,6.50
2018-08-07T22:54:46.836Z,8.23
2018-08-07T22:57:14.908Z,7.17
2018-08-07T22:59:42.976Z,9.28
2018-08-07T23:02:11.037Z,6.92
2018-08-07T23:04:39.236Z,6.47
2018-08-07T23:07:07.296Z,6.65
2018-08-07T23:09:35.432Z,10.23
2018-08-07T23:12:03.440Z,6.25
2018-08-07T23:14:31.496Z,8.78
2018-08-07T23:16:59.653Z,7.20
2018-08-07T23:19:27.841Z,7.53
2018-08-07T23:21:55.900Z,5.58
2018-08-07T23:24:23.969Z,5.58
2018-08-07T23:26:52.030Z,10.08
2018-08-07T23:29:20.089Z,7.40
2018-08-07T23:31:48.148Z,6.83
2018-08-07T23:34:16.224Z,6.22
2018-08-07T23:36:44.285Z,7.12
2018-08-07T23:39:12.352Z,5.33
2018-08-07T23:41:40.400Z,6.87
2018-08-07T23:44:08.476Z,7.28
2018-08-07T23:46:36.548Z,7.97
2018-08-07T23:49:04.617Z,6.97
2018-08-07T23:51:32.670Z,7.62
2018-08-07T23:54:00.723Z,6.92
2018-08-07T23:56:28.779Z,7.08
2018-08-07T23:58:56.840Z,8.00
